Flight Briefing for CMB861

Departure Arrival
RAFO Thumrait (OOTH)
Click to view FAA NOTAMS
Diego Garcia (FJDG)
Click to view FAA NOTAMS
Departure Time Arrival Time
N/A N/A
Aircraft Distance
B757-200SF 1849nm
Departure METAR Arrival METAR
No METAR available for OOTH. FJDG 230555Z 10008KT 9999 FEW020 SCT050 BKN080 29/27 A2988 RMK SLP115 P0001 60001 8/870 T02890265 10289 20268 50003
Suggested Route
KIVEL UM551 ANGAL MOXET L516 NKW


View recent IFR Routes data
Notes
USTRANSCOM CONTRACT FLIGHT

Charts and Procedures

Charts for OOTH
No chart available
Charts for FJDG
No chart available

Windy.com Weather Map